sensor_id;sensor_type;location;lat;lon;timestamp;P1;durP1;ratioP1;P2;durP2;ratioP2
52294;SDS011;38243;53.212;6.574;2023-05-10T00:01:05;0.30;;;0.30;;
52294;SDS011;38243;53.212;6.574;2023-05-10T00:03:30;0.30;;;0.30;;
52294;SDS011;38243;53.212;6.574;2023-05-10T00:05:59;0.50;;;0.40;;
52294;SDS011;38243;53.212;6.574;2023-05-10T00:08:25;0.70;;;0.30;;
52294;SDS011;38243;53.212;6.574;2023-05-10T00:10:51;0.50;;;0.30;;
52294;SDS011;38243;53.212;6.574;2023-05-10T00:13:18;0.90;;;0.40;;
52294;SDS011;38243;53.212;6.574;2023-05-10T00:15:43;1.40;;;0.40;;
52294;SDS011;38243;53.212;6.574;2023-05-10T00:18:09;0.50;;;0.40;;
52294;SDS011;38243;53.212;6.574;2023-05-10T00:20:35;0.30;;;0.30;;
52294;SDS011;38243;53.212;6.574;2023-05-10T00:23:01;0.23;;;0.23;;
52294;SDS011;38243;53.212;6.574;2023-05-10T00:25:26;0.63;;;0.40;;
52294;SDS011;38243;53.212;6.574;2023-05-10T00:27:52;0.30;;;0.30;;
52294;SDS011;38243;53.212;6.574;2023-05-10T00:30:20;0.30;;;0.30;;
52294;SDS011;38243;53.212;6.574;2023-05-10T00:32:46;0.20;;;0.20;;
52294;SDS011;38243;53.212;6.574;2023-05-10T00:35:13;0.50;;;0.40;;
52294;SDS011;38243;53.212;6.574;2023-05-10T00:37:39;0.40;;;0.40;;
52294;SDS011;38243;53.212;6.574;2023-05-10T00:40:05;0.20;;;0.20;;
52294;SDS011;38243;53.212;6.574;2023-05-10T00:42:31;0.40;;;0.22;;
52294;SDS011;38243;53.212;6.574;2023-05-10T00:44:57;0.57;;;0.20;;
52294;SDS011;38243;53.212;6.574;2023-05-10T00:47:23;1.30;;;0.30;;
52294;SDS011;38243;53.212;6.574;2023-05-10T00:49:48;0.30;;;0.22;;
52294;SDS011;38243;53.212;6.574;2023-05-10T00:52:15;0.67;;;0.20;;
52294;SDS011;38243;53.212;6.574;2023-05-10T00:54:41;0.60;;;0.40;;
52294;SDS011;38243;53.212;6.574;2023-05-10T00:57:07;1.40;;;0.30;;
52294;SDS011;38243;53.212;6.574;2023-05-10T00:59:33;2.30;;;0.40;;
52294;SDS011;38243;53.212;6.574;2023-05-10T01:01:58;0.50;;;0.20;;
52294;SDS011;38243;53.212;6.574;2023-05-10T01:04:24;0.40;;;0.20;;
52294;SDS011;38243;53.212;6.574;2023-05-10T01:06:51;0.75;;;0.20;;
52294;SDS011;38243;53.212;6.574;2023-05-10T01:09:17;1.70;;;0.30;;
52294;SDS011;38243;53.212;6.574;2023-05-10T01:11:44;0.93;;;0.30;;
52294;SDS011;38243;53.212;6.574;2023-05-10T01:14:10;0.20;;;0.20;;
52294;SDS011;38243;53.212;6.574;2023-05-10T01:16:37;1.80;;;0.35;;
52294;SDS011;38243;53.212;6.574;2023-05-10T01:19:12;1.10;;;0.50;;
52294;SDS011;38243;53.212;6.574;2023-05-10T01:38:47;0.32;;;0.30;;
52294;SDS011;38243;53.212;6.574;2023-05-10T01:46:58;0.47;;;0.30;;
52294;SDS011;38243;53.212;6.574;2023-05-10T01:49:32;0.93;;;0.30;;
52294;SDS011;38243;53.212;6.574;2023-05-10T01:52:06;0.40;;;0.30;;
52294;SDS011;38243;53.212;6.574;2023-05-10T01:54:35;0.43;;;0.20;;
52294;SDS011;38243;53.212;6.574;2023-05-10T01:57:06;0.40;;;0.30;;
52294;SDS011;38243;53.212;6.574;2023-05-10T01:59:35;1.00;;;0.28;;
52294;SDS011;38243;53.212;6.574;2023-05-10T02:02:06;0.28;;;0.28;;
52294;SDS011;38243;53.212;6.574;2023-05-10T02:04:34;0.40;;;0.30;;
52294;SDS011;38243;53.212;6.574;2023-05-10T02:07:02;0.35;;;0.30;;
52294;SDS011;38243;53.212;6.574;2023-05-10T02:09:29;0.35;;;0.20;;
52294;SDS011;38243;53.212;6.574;2023-05-10T02:11:59;0.38;;;0.20;;
52294;SDS011;38243;53.212;6.574;2023-05-10T02:14:27;0.40;;;0.20;;
52294;SDS011;38243;53.212;6.574;2023-05-10T02:16:57;0.50;;;0.20;;
52294;SDS011;38243;53.212;6.574;2023-05-10T02:19:25;0.20;;;0.20;;
52294;SDS011;38243;53.212;6.574;2023-05-10T02:21:52;0.80;;;0.20;;
52294;SDS011;38243;53.212;6.574;2023-05-10T02:24:20;0.17;;;0.10;;
52294;SDS011;38243;53.212;6.574;2023-05-10T02:26:48;0.17;;;0.10;;
52294;SDS011;38243;53.212;6.574;2023-05-10T02:29:16;0.28;;;0.28;;
52294;SDS011;38243;53.212;6.574;2023-05-10T02:31:43;0.28;;;0.10;;
52294;SDS011;38243;53.212;6.574;2023-05-10T02:34:09;0.30;;;0.10;;
52294;SDS011;38243;53.212;6.574;2023-05-10T02:36:37;0.93;;;0.20;;
52294;SDS011;38243;53.212;6.574;2023-05-10T02:39:05;0.17;;;0.17;;
52294;SDS011;38243;53.212;6.574;2023-05-10T02:41:35;0.95;;;0.13;;
52294;SDS011;38243;53.212;6.574;2023-05-10T02:44:02;0.10;;;0.10;;
52294;SDS011;38243;53.212;6.574;2023-05-10T02:46:31;0.10;;;0.10;;
52294;SDS011;38243;53.212;6.574;2023-05-10T02:48:57;0.70;;;0.20;;
52294;SDS011;38243;53.212;6.574;2023-05-10T02:51:24;0.20;;;0.10;;
52294;SDS011;38243;53.212;6.574;2023-05-10T02:53:53;0.50;;;0.20;;
52294;SDS011;38243;53.212;6.574;2023-05-10T02:56:23;0.10;;;0.10;;
52294;SDS011;38243;53.212;6.574;2023-05-10T02:58:54;0.20;;;0.10;;
52294;SDS011;38243;53.212;6.574;2023-05-10T03:01:20;0.25;;;0.20;;
52294;SDS011;38243;53.212;6.574;2023-05-10T03:03:46;1.30;;;0.20;;
52294;SDS011;38243;53.212;6.574;2023-05-10T03:06:12;0.80;;;0.20;;
52294;SDS011;38243;53.212;6.574;2023-05-10T03:14:10;1.30;;;0.20;;
52294;SDS011;38243;53.212;6.574;2023-05-10T03:16:41;0.40;;;0.20;;
52294;SDS011;38243;53.212;6.574;2023-05-10T03:21:55;0.22;;;0.13;;
52294;SDS011;38243;53.212;6.574;2023-05-10T03:24:28;0.20;;;0.20;;
52294;SDS011;38243;53.212;6.574;2023-05-10T03:26:55;0.40;;;0.20;;
52294;SDS011;38243;53.212;6.574;2023-05-10T03:29:24;0.90;;;0.40;;
52294;SDS011;38243;53.212;6.574;2023-05-10T03:31:51;0.20;;;0.20;;
52294;SDS011;38243;53.212;6.574;2023-05-10T03:34:22;0.30;;;0.30;;
52294;SDS011;38243;53.212;6.574;2023-05-10T03:36:49;0.30;;;0.28;;
52294;SDS011;38243;53.212;6.574;2023-05-10T03:39:14;0.30;;;0.20;;
52294;SDS011;38243;53.212;6.574;2023-05-10T03:41:40;0.30;;;0.30;;
52294;SDS011;38243;53.212;6.574;2023-05-10T03:44:06;0.30;;;0.20;;
52294;SDS011;38243;53.212;6.574;2023-05-10T03:46:32;0.30;;;0.20;;
52294;SDS011;38243;53.212;6.574;2023-05-10T03:48:57;0.20;;;0.20;;
52294;SDS011;38243;53.212;6.574;2023-05-10T03:51:23;1.95;;;0.30;;
52294;SDS011;38243;53.212;6.574;2023-05-10T03:53:53;0.40;;;0.22;;
52294;SDS011;38243;53.212;6.574;2023-05-10T03:56:19;1.00;;;0.30;;
52294;SDS011;38243;53.212;6.574;2023-05-10T03:58:46;0.65;;;0.22;;
52294;SDS011;38243;53.212;6.574;2023-05-10T04:01:11;0.50;;;0.20;;
52294;SDS011;38243;53.212;6.574;2023-05-10T04:03:37;0.80;;;0.20;;
52294;SDS011;38243;53.212;6.574;2023-05-10T04:06:03;0.30;;;0.20;;
52294;SDS011;38243;53.212;6.574;2023-05-10T04:08:30;0.20;;;0.20;;
52294;SDS011;38243;53.212;6.574;2023-05-10T04:11:09;0.70;;;0.43;;
52294;SDS011;38243;53.212;6.574;2023-05-10T04:13:37;0.30;;;0.20;;
52294;SDS011;38243;53.212;6.574;2023-05-10T04:16:03;0.60;;;0.22;;
52294;SDS011;38243;53.212;6.574;2023-05-10T04:18:30;0.15;;;0.10;;
52294;SDS011;38243;53.212;6.574;2023-05-10T04:20:56;3.30;;;0.50;;
52294;SDS011;38243;53.212;6.574;2023-05-10T04:23:22;0.43;;;0.20;;
52294;SDS011;38243;53.212;6.574;2023-05-10T04:25:48;0.30;;;0.25;;
52294;SDS011;38243;53.212;6.574;2023-05-10T04:28:13;0.27;;;0.10;;
52294;SDS011;38243;53.212;6.574;2023-05-10T04:30:39;1.10;;;0.20;;
52294;SDS011;38243;53.212;6.574;2023-05-10T04:33:05;0.20;;;0.10;;
52294;SDS011;38243;53.212;6.574;2023-05-10T04:35:31;0.15;;;0.10;;
52294;SDS011;38243;53.212;6.574;2023-05-10T04:37:56;0.20;;;0.20;;
52294;SDS011;38243;53.212;6.574;2023-05-10T04:40:22;0.60;;;0.20;;
52294;SDS011;38243;53.212;6.574;2023-05-10T04:42:48;0.20;;;0.20;;
52294;SDS011;38243;53.212;6.574;2023-05-10T04:45:13;0.30;;;0.10;;
52294;SDS011;38243;53.212;6.574;2023-05-10T04:47:42;0.30;;;0.20;;
52294;SDS011;38243;53.212;6.574;2023-05-10T04:50:08;1.10;;;0.20;;
52294;SDS011;38243;53.212;6.574;2023-05-10T04:52:34;0.43;;;0.30;;
52294;SDS011;38243;53.212;6.574;2023-05-10T04:54:59;0.80;;;0.20;;
52294;SDS011;38243;53.212;6.574;2023-05-10T04:57:25;1.00;;;0.10;;
52294;SDS011;38243;53.212;6.574;2023-05-10T04:59:51;0.90;;;0.10;;
52294;SDS011;38243;53.212;6.574;2023-05-10T05:02:17;0.52;;;0.22;;
52294;SDS011;38243;53.212;6.574;2023-05-10T05:04:42;1.00;;;0.10;;
52294;SDS011;38243;53.212;6.574;2023-05-10T05:07:08;1.20;;;0.20;;
52294;SDS011;38243;53.212;6.574;2023-05-10T05:09:34;2.07;;;0.20;;
52294;SDS011;38243;53.212;6.574;2023-05-10T05:11:59;2.53;;;0.10;;
52294;SDS011;38243;53.212;6.574;2023-05-10T05:14:25;3.47;;;0.20;;
52294;SDS011;38243;53.212;6.574;2023-05-10T05:16:51;2.00;;;0.20;;
52294;SDS011;38243;53.212;6.574;2023-05-10T05:19:17;3.50;;;0.28;;
52294;SDS011;38243;53.212;6.574;2023-05-10T05:21:43;4.10;;;0.30;;
52294;SDS011;38243;53.212;6.574;2023-05-10T05:24:09;2.97;;;0.20;;
52294;SDS011;38243;53.212;6.574;2023-05-10T05:26:37;5.95;;;0.20;;
52294;SDS011;38243;53.212;6.574;2023-05-10T05:29:03;4.03;;;0.25;;
52294;SDS011;38243;53.212;6.574;2023-05-10T05:31:28;1.90;;;0.20;;
52294;SDS011;38243;53.212;6.574;2023-05-10T05:33:54;2.60;;;0.40;;
52294;SDS011;38243;53.212;6.574;2023-05-10T05:36:20;3.72;;;0.60;;
52294;SDS011;38243;53.212;6.574;2023-05-10T05:38:46;3.10;;;0.27;;
52294;SDS011;38243;53.212;6.574;2023-05-10T05:41:12;3.00;;;0.30;;
52294;SDS011;38243;53.212;6.574;2023-05-10T05:43:38;1.20;;;0.22;;
52294;SDS011;38243;53.212;6.574;2023-05-10T05:46:04;2.33;;;0.22;;
52294;SDS011;38243;53.212;6.574;2023-05-10T05:48:30;0.67;;;0.40;;
52294;SDS011;38243;53.212;6.574;2023-05-10T05:50:56;0.75;;;0.28;;
52294;SDS011;38243;53.212;6.574;2023-05-10T05:53:22;0.50;;;0.15;;
52294;SDS011;38243;53.212;6.574;2023-05-10T05:55:55;1.77;;;0.20;;
52294;SDS011;38243;53.212;6.574;2023-05-10T05:58:22;2.70;;;0.60;;
52294;SDS011;38243;53.212;6.574;2023-05-10T06:00:49;1.03;;;0.20;;
52294;SDS011;38243;53.212;6.574;2023-05-10T06:03:17;0.60;;;0.22;;
52294;SDS011;38243;53.212;6.574;2023-05-10T06:05:43;1.08;;;0.30;;
52294;SDS011;38243;53.212;6.574;2023-05-10T06:08:09;0.73;;;0.30;;
52294;SDS011;38243;53.212;6.574;2023-05-10T06:10:34;1.40;;;0.40;;
52294;SDS011;38243;53.212;6.574;2023-05-10T06:13:01;0.22;;;0.20;;
52294;SDS011;38243;53.212;6.574;2023-05-10T06:15:27;2.40;;;0.40;;
52294;SDS011;38243;53.212;6.574;2023-05-10T06:17:52;0.65;;;0.20;;
52294;SDS011;38243;53.212;6.574;2023-05-10T06:20:18;0.30;;;0.20;;
52294;SDS011;38243;53.212;6.574;2023-05-10T06:22:44;0.60;;;0.30;;
52294;SDS011;38243;53.212;6.574;2023-05-10T06:25:10;0.20;;;0.20;;
52294;SDS011;38243;53.212;6.574;2023-05-10T06:27:36;1.30;;;0.20;;
52294;SDS011;38243;53.212;6.574;2023-05-10T06:30:02;1.60;;;0.20;;
52294;SDS011;38243;53.212;6.574;2023-05-10T06:32:28;3.07;;;0.30;;
52294;SDS011;38243;53.212;6.574;2023-05-10T06:34:54;2.63;;;0.70;;
52294;SDS011;38243;53.212;6.574;2023-05-10T06:37:20;4.40;;;0.97;;
52294;SDS011;38243;53.212;6.574;2023-05-10T06:39:45;8.30;;;1.30;;
52294;SDS011;38243;53.212;6.574;2023-05-10T06:42:11;8.07;;;1.57;;
52294;SDS011;38243;53.212;6.574;2023-05-10T06:44:37;7.97;;;1.02;;
52294;SDS011;38243;53.212;6.574;2023-05-10T06:47:02;7.87;;;0.80;;
52294;SDS011;38243;53.212;6.574;2023-05-10T06:49:28;9.13;;;1.30;;
52294;SDS011;38243;53.212;6.574;2023-05-10T06:51:57;10.80;;;1.20;;
52294;SDS011;38243;53.212;6.574;2023-05-10T06:54:23;7.18;;;0.80;;
52294;SDS011;38243;53.212;6.574;2023-05-10T06:56:49;6.40;;;1.10;;
52294;SDS011;38243;53.212;6.574;2023-05-10T06:59:14;5.85;;;0.90;;
52294;SDS011;38243;53.212;6.574;2023-05-10T07:01:41;6.97;;;0.68;;
52294;SDS011;38243;53.212;6.574;2023-05-10T07:04:07;7.37;;;0.80;;
52294;SDS011;38243;53.212;6.574;2023-05-10T07:06:33;7.05;;;0.90;;
52294;SDS011;38243;53.212;6.574;2023-05-10T07:08:59;4.40;;;0.70;;
52294;SDS011;38243;53.212;6.574;2023-05-10T07:11:25;3.35;;;0.50;;
52294;SDS011;38243;53.212;6.574;2023-05-10T07:13:51;2.03;;;0.50;;
52294;SDS011;38243;53.212;6.574;2023-05-10T07:16:17;2.33;;;0.60;;
52294;SDS011;38243;53.212;6.574;2023-05-10T07:18:43;2.67;;;0.50;;
52294;SDS011;38243;53.212;6.574;2023-05-10T07:21:09;4.07;;;0.52;;
52294;SDS011;38243;53.212;6.574;2023-05-10T07:23:35;4.30;;;0.77;;
52294;SDS011;38243;53.212;6.574;2023-05-10T07:26:01;2.73;;;0.40;;
52294;SDS011;38243;53.212;6.574;2023-05-10T07:28:27;2.90;;;0.47;;
52294;SDS011;38243;53.212;6.574;2023-05-10T07:30:52;2.65;;;0.47;;
52294;SDS011;38243;53.212;6.574;2023-05-10T07:33:18;2.50;;;0.30;;
52294;SDS011;38243;53.212;6.574;2023-05-10T07:35:44;1.30;;;0.28;;
52294;SDS011;38243;53.212;6.574;2023-05-10T07:38:10;2.50;;;0.40;;
52294;SDS011;38243;53.212;6.574;2023-05-10T07:40:38;1.88;;;0.30;;
52294;SDS011;38243;53.212;6.574;2023-05-10T07:43:05;0.60;;;0.25;;
52294;SDS011;38243;53.212;6.574;2023-05-10T07:45:30;2.33;;;0.80;;
52294;SDS011;38243;53.212;6.574;2023-05-10T07:47:56;3.00;;;0.40;;
52294;SDS011;38243;53.212;6.574;2023-05-10T07:50:22;1.50;;;0.30;;
52294;SDS011;38243;53.212;6.574;2023-05-10T07:52:48;0.50;;;0.30;;
52294;SDS011;38243;53.212;6.574;2023-05-10T07:55:13;2.40;;;0.40;;
52294;SDS011;38243;53.212;6.574;2023-05-10T07:57:39;1.08;;;0.30;;
52294;SDS011;38243;53.212;6.574;2023-05-10T08:00:05;0.80;;;0.20;;
52294;SDS011;38243;53.212;6.574;2023-05-10T08:02:32;2.75;;;0.22;;
52294;SDS011;38243;53.212;6.574;2023-05-10T08:05:00;0.93;;;0.30;;
52294;SDS011;38243;53.212;6.574;2023-05-10T08:07:25;1.65;;;0.30;;
52294;SDS011;38243;53.212;6.574;2023-05-10T08:09:51;1.30;;;0.20;;
52294;SDS011;38243;53.212;6.574;2023-05-10T08:12:17;1.40;;;0.17;;
52294;SDS011;38243;53.212;6.574;2023-05-10T08:14:43;0.60;;;0.20;;
52294;SDS011;38243;53.212;6.574;2023-05-10T08:17:08;1.50;;;0.22;;
52294;SDS011;38243;53.212;6.574;2023-05-10T08:19:34;0.90;;;0.20;;
52294;SDS011;38243;53.212;6.574;2023-05-10T08:22:00;1.48;;;0.30;;
52294;SDS011;38243;53.212;6.574;2023-05-10T08:24:25;0.80;;;0.20;;
52294;SDS011;38243;53.212;6.574;2023-05-10T08:26:51;0.43;;;0.20;;
52294;SDS011;38243;53.212;6.574;2023-05-10T08:29:17;0.57;;;0.20;;
52294;SDS011;38243;53.212;6.574;2023-05-10T08:31:43;1.85;;;0.40;;
52294;SDS011;38243;53.212;6.574;2023-05-10T08:34:08;1.50;;;0.10;;
52294;SDS011;38243;53.212;6.574;2023-05-10T08:36:34;1.05;;;0.20;;
52294;SDS011;38243;53.212;6.574;2023-05-10T08:39:01;0.40;;;0.20;;
52294;SDS011;38243;53.212;6.574;2023-05-10T08:41:27;0.40;;;0.20;;
52294;SDS011;38243;53.212;6.574;2023-05-10T08:43:53;0.40;;;0.20;;
52294;SDS011;38243;53.212;6.574;2023-05-10T08:46:20;0.45;;;0.20;;
52294;SDS011;38243;53.212;6.574;2023-05-10T08:48:47;1.10;;;0.20;;
52294;SDS011;38243;53.212;6.574;2023-05-10T08:51:18;1.27;;;0.20;;
52294;SDS011;38243;53.212;6.574;2023-05-10T08:53:46;0.52;;;0.20;;
52294;SDS011;38243;53.212;6.574;2023-05-10T08:56:13;0.53;;;0.20;;
52294;SDS011;38243;53.212;6.574;2023-05-10T08:58:40;2.70;;;0.30;;
52294;SDS011;38243;53.212;6.574;2023-05-10T09:01:06;0.38;;;0.20;;
52294;SDS011;38243;53.212;6.574;2023-05-10T09:03:33;0.50;;;0.20;;
52294;SDS011;38243;53.212;6.574;2023-05-10T09:06:00;1.95;;;0.22;;
52294;SDS011;38243;53.212;6.574;2023-05-10T09:08:26;0.20;;;0.20;;
52294;SDS011;38243;53.212;6.574;2023-05-10T09:10:52;1.10;;;0.10;;
52294;SDS011;38243;53.212;6.574;2023-05-10T09:13:19;0.22;;;0.20;;
52294;SDS011;38243;53.212;6.574;2023-05-10T09:15:47;0.70;;;0.20;;
52294;SDS011;38243;53.212;6.574;2023-05-10T09:18:13;0.28;;;0.10;;
52294;SDS011;38243;53.212;6.574;2023-05-10T09:20:39;0.83;;;0.20;;
52294;SDS011;38243;53.212;6.574;2023-05-10T09:23:05;0.20;;;0.20;;
52294;SDS011;38243;53.212;6.574;2023-05-10T09:25:31;0.40;;;0.20;;
52294;SDS011;38243;53.212;6.574;2023-05-10T09:28:02;0.80;;;0.20;;
52294;SDS011;38243;53.212;6.574;2023-05-10T09:30:32;2.60;;;0.50;;
52294;SDS011;38243;53.212;6.574;2023-05-10T09:32:58;0.20;;;0.20;;
52294;SDS011;38243;53.212;6.574;2023-05-10T09:35:25;0.43;;;0.20;;
52294;SDS011;38243;53.212;6.574;2023-05-10T09:37:53;0.80;;;0.30;;
52294;SDS011;38243;53.212;6.574;2023-05-10T09:40:21;0.50;;;0.20;;
52294;SDS011;38243;53.212;6.574;2023-05-10T09:42:53;1.13;;;0.20;;
52294;SDS011;38243;53.212;6.574;2023-05-10T09:45:21;0.65;;;0.20;;
52294;SDS011;38243;53.212;6.574;2023-05-10T09:47:48;0.28;;;0.10;;
52294;SDS011;38243;53.212;6.574;2023-05-10T09:50:14;0.67;;;0.20;;
52294;SDS011;38243;53.212;6.574;2023-05-10T09:52:47;0.55;;;0.20;;
52294;SDS011;38243;53.212;6.574;2023-05-10T09:55:14;0.90;;;0.10;;
52294;SDS011;38243;53.212;6.574;2023-05-10T09:57:41;0.60;;;0.20;;
52294;SDS011;38243;53.212;6.574;2023-05-10T10:00:07;0.30;;;0.10;;
52294;SDS011;38243;53.212;6.574;2023-05-10T10:02:35;0.38;;;0.20;;
52294;SDS011;38243;53.212;6.574;2023-05-10T10:05:01;0.98;;;0.30;;
52294;SDS011;38243;53.212;6.574;2023-05-10T10:07:30;0.45;;;0.20;;
52294;SDS011;38243;53.212;6.574;2023-05-10T10:09:57;0.53;;;0.20;;
52294;SDS011;38243;53.212;6.574;2023-05-10T10:12:23;0.50;;;0.20;;
52294;SDS011;38243;53.212;6.574;2023-05-10T10:14:50;0.80;;;0.27;;
52294;SDS011;38243;53.212;6.574;2023-05-10T10:17:17;0.80;;;0.20;;
52294;SDS011;38243;53.212;6.574;2023-05-10T10:19:42;0.65;;;0.20;;
52294;SDS011;38243;53.212;6.574;2023-05-10T10:22:10;0.40;;;0.20;;
52294;SDS011;38243;53.212;6.574;2023-05-10T10:24:37;0.50;;;0.20;;
52294;SDS011;38243;53.212;6.574;2023-05-10T10:30:16;1.05;;;0.30;;
52294;SDS011;38243;53.212;6.574;2023-05-10T10:32:55;0.80;;;0.30;;
52294;SDS011;38243;53.212;6.574;2023-05-10T10:35:43;0.30;;;0.30;;
52294;SDS011;38243;53.212;6.574;2023-05-10T10:38:12;0.47;;;0.30;;
52294;SDS011;38243;53.212;6.574;2023-05-10T10:40:38;0.50;;;0.30;;
52294;SDS011;38243;53.212;6.574;2023-05-10T10:48:38;0.57;;;0.30;;
52294;SDS011;38243;53.212;6.574;2023-05-10T10:51:04;0.50;;;0.20;;
52294;SDS011;38243;53.212;6.574;2023-05-10T10:53:30;0.80;;;0.30;;
52294;SDS011;38243;53.212;6.574;2023-05-10T10:56:09;0.20;;;0.20;;
52294;SDS011;38243;53.212;6.574;2023-05-10T10:58:38;0.20;;;0.20;;
52294;SDS011;38243;53.212;6.574;2023-05-10T11:03:37;0.25;;;0.25;;
52294;SDS011;38243;53.212;6.574;2023-05-10T11:06:02;1.23;;;0.30;;
52294;SDS011;38243;53.212;6.574;2023-05-10T11:08:29;0.43;;;0.30;;
52294;SDS011;38243;53.212;6.574;2023-05-10T11:13:28;0.40;;;0.30;;
52294;SDS011;38243;53.212;6.574;2023-05-10T11:19:11;0.30;;;0.30;;
52294;SDS011;38243;53.212;6.574;2023-05-10T11:21:52;0.53;;;0.40;;
52294;SDS011;38243;53.212;6.574;2023-05-10T11:24:38;0.57;;;0.47;;
52294;SDS011;38243;53.212;6.574;2023-05-10T11:27:05;0.57;;;0.40;;
52294;SDS011;38243;53.212;6.574;2023-05-10T11:29:31;0.30;;;0.30;;
52294;SDS011;38243;53.212;6.574;2023-05-10T11:31:58;1.00;;;0.30;;
52294;SDS011;38243;53.212;6.574;2023-05-10T11:34:30;0.37;;;0.30;;
52294;SDS011;38243;53.212;6.574;2023-05-10T11:36:59;0.50;;;0.40;;
52294;SDS011;38243;53.212;6.574;2023-05-10T11:39:25;0.60;;;0.40;;
52294;SDS011;38243;53.212;6.574;2023-05-10T11:41:56;0.90;;;0.50;;
52294;SDS011;38243;53.212;6.574;2023-05-10T11:44:22;0.60;;;0.40;;
52294;SDS011;38243;53.212;6.574;2023-05-10T11:46:48;0.65;;;0.50;;
52294;SDS011;38243;53.212;6.574;2023-05-10T11:49:14;0.90;;;0.50;;
52294;SDS011;38243;53.212;6.574;2023-05-10T11:51:40;1.30;;;0.45;;
52294;SDS011;38243;53.212;6.574;2023-05-10T11:54:09;0.50;;;0.45;;
52294;SDS011;38243;53.212;6.574;2023-05-10T11:56:36;1.40;;;0.40;;
52294;SDS011;38243;53.212;6.574;2023-05-10T11:59:03;0.90;;;0.55;;
52294;SDS011;38243;53.212;6.574;2023-05-10T12:01:29;1.33;;;0.50;;
52294;SDS011;38243;53.212;6.574;2023-05-10T12:03:56;1.13;;;0.60;;
52294;SDS011;38243;53.212;6.574;2023-05-10T12:06:26;1.05;;;0.47;;
52294;SDS011;38243;53.212;6.574;2023-05-10T12:08:54;1.20;;;0.50;;
52294;SDS011;38243;53.212;6.574;2023-05-10T12:11:19;0.63;;;0.50;;
52294;SDS011;38243;53.212;6.574;2023-05-10T12:13:49;0.70;;;0.50;;
52294;SDS011;38243;53.212;6.574;2023-05-10T12:16:16;0.77;;;0.60;;
52294;SDS011;38243;53.212;6.574;2023-05-10T12:18:50;0.60;;;0.55;;
52294;SDS011;38243;53.212;6.574;2023-05-10T12:21:16;0.68;;;0.50;;
52294;SDS011;38243;53.212;6.574;2023-05-10T12:23:49;0.85;;;0.60;;
52294;SDS011;38243;53.212;6.574;2023-05-10T12:26:15;0.77;;;0.60;;
52294;SDS011;38243;53.212;6.574;2023-05-10T12:28:41;0.88;;;0.68;;
52294;SDS011;38243;53.212;6.574;2023-05-10T12:31:07;1.20;;;0.60;;
52294;SDS011;38243;53.212;6.574;2023-05-10T12:33:37;0.80;;;0.50;;
52294;SDS011;38243;53.212;6.574;2023-05-10T12:36:04;0.80;;;0.73;;
52294;SDS011;38243;53.212;6.574;2023-05-10T12:38:35;0.70;;;0.68;;
52294;SDS011;38243;53.212;6.574;2023-05-10T12:41:07;0.85;;;0.60;;
52294;SDS011;38243;53.212;6.574;2023-05-10T12:43:36;1.02;;;0.70;;
52294;SDS011;38243;53.212;6.574;2023-05-10T12:46:13;1.23;;;0.73;;
52294;SDS011;38243;53.212;6.574;2023-05-10T12:48:40;0.90;;;0.80;;
52294;SDS011;38243;53.212;6.574;2023-05-10T12:51:07;1.13;;;0.80;;
52294;SDS011;38243;53.212;6.574;2023-05-10T12:53:35;0.83;;;0.70;;
52294;SDS011;38243;53.212;6.574;2023-05-10T12:56:01;1.10;;;0.60;;
52294;SDS011;38243;53.212;6.574;2023-05-10T12:58:26;0.70;;;0.70;;
52294;SDS011;38243;53.212;6.574;2023-05-10T13:00:52;0.75;;;0.70;;
52294;SDS011;38243;53.212;6.574;2023-05-10T13:03:18;1.67;;;0.80;;
52294;SDS011;38243;53.212;6.574;2023-05-10T13:05:44;1.02;;;0.90;;
52294;SDS011;38243;53.212;6.574;2023-05-10T13:08:10;1.65;;;0.70;;
52294;SDS011;38243;53.212;6.574;2023-05-10T13:10:36;0.70;;;0.70;;
52294;SDS011;38243;53.212;6.574;2023-05-10T13:13:02;1.30;;;0.80;;
52294;SDS011;38243;53.212;6.574;2023-05-10T13:15:27;0.85;;;0.70;;
52294;SDS011;38243;53.212;6.574;2023-05-10T13:17:53;1.08;;;1.00;;
52294;SDS011;38243;53.212;6.574;2023-05-10T13:20:19;1.50;;;0.90;;
52294;SDS011;38243;53.212;6.574;2023-05-10T13:22:45;0.80;;;0.80;;
52294;SDS011;38243;53.212;6.574;2023-05-10T13:25:11;0.93;;;0.80;;
52294;SDS011;38243;53.212;6.574;2023-05-10T13:27:38;0.87;;;0.83;;
52294;SDS011;38243;53.212;6.574;2023-05-10T13:30:05;1.17;;;0.93;;
52294;SDS011;38243;53.212;6.574;2023-05-10T13:32:34;1.00;;;0.90;;
52294;SDS011;38243;53.212;6.574;2023-05-10T13:35:00;1.00;;;0.80;;
52294;SDS011;38243;53.212;6.574;2023-05-10T13:37:28;1.20;;;0.68;;
52294;SDS011;38243;53.212;6.574;2023-05-10T13:39:54;0.95;;;0.90;;
52294;SDS011;38243;53.212;6.574;2023-05-10T13:42:21;1.23;;;0.88;;
52294;SDS011;38243;53.212;6.574;2023-05-10T13:44:48;1.00;;;0.70;;
52294;SDS011;38243;53.212;6.574;2023-05-10T13:47:13;1.10;;;1.00;;
52294;SDS011;38243;53.212;6.574;2023-05-10T13:49:39;1.10;;;1.00;;
52294;SDS011;38243;53.212;6.574;2023-05-10T13:52:05;1.42;;;0.93;;
52294;SDS011;38243;53.212;6.574;2023-05-10T13:54:35;0.98;;;0.88;;
52294;SDS011;38243;53.212;6.574;2023-05-10T13:57:02;0.90;;;0.90;;
52294;SDS011;38243;53.212;6.574;2023-05-10T13:59:28;1.33;;;0.90;;
52294;SDS011;38243;53.212;6.574;2023-05-10T14:01:58;1.10;;;1.00;;
52294;SDS011;38243;53.212;6.574;2023-05-10T14:04:24;1.10;;;1.00;;
52294;SDS011;38243;53.212;6.574;2023-05-10T14:06:50;0.90;;;0.90;;
52294;SDS011;38243;53.212;6.574;2023-05-10T14:09:17;1.35;;;0.95;;
52294;SDS011;38243;53.212;6.574;2023-05-10T14:11:43;1.27;;;1.00;;
52294;SDS011;38243;53.212;6.574;2023-05-10T14:14:10;1.00;;;0.90;;
52294;SDS011;38243;53.212;6.574;2023-05-10T14:16:36;0.95;;;0.95;;
52294;SDS011;38243;53.212;6.574;2023-05-10T14:19:02;1.10;;;0.90;;
52294;SDS011;38243;53.212;6.574;2023-05-10T14:21:28;0.80;;;0.80;;
52294;SDS011;38243;53.212;6.574;2023-05-10T14:23:55;0.90;;;0.90;;
52294;SDS011;38243;53.212;6.574;2023-05-10T14:26:21;1.23;;;1.13;;
52294;SDS011;38243;53.212;6.574;2023-05-10T14:28:47;1.23;;;1.00;;
52294;SDS011;38243;53.212;6.574;2023-05-10T14:31:13;1.10;;;0.80;;
52294;SDS011;38243;53.212;6.574;2023-05-10T14:33:39;1.33;;;0.90;;
52294;SDS011;38243;53.212;6.574;2023-05-10T14:36:06;1.20;;;1.00;;
52294;SDS011;38243;53.212;6.574;2023-05-10T14:38:32;1.38;;;1.10;;
52294;SDS011;38243;53.212;6.574;2023-05-10T14:40:58;0.90;;;0.90;;
52294;SDS011;38243;53.212;6.574;2023-05-10T14:43:23;0.83;;;0.83;;
52294;SDS011;38243;53.212;6.574;2023-05-10T14:45:49;1.02;;;0.93;;
52294;SDS011;38243;53.212;6.574;2023-05-10T14:48:15;1.53;;;1.10;;
52294;SDS011;38243;53.212;6.574;2023-05-10T14:50:42;1.05;;;0.98;;
52294;SDS011;38243;53.212;6.574;2023-05-10T14:53:08;1.17;;;1.05;;
52294;SDS011;38243;53.212;6.574;2023-05-10T14:55:34;0.90;;;0.90;;
52294;SDS011;38243;53.212;6.574;2023-05-10T14:58:02;1.48;;;1.00;;
52294;SDS011;38243;53.212;6.574;2023-05-10T15:00:28;1.20;;;1.00;;
52294;SDS011;38243;53.212;6.574;2023-05-10T15:02:55;0.90;;;0.90;;
52294;SDS011;38243;53.212;6.574;2023-05-10T15:05:20;1.13;;;1.00;;
52294;SDS011;38243;53.212;6.574;2023-05-10T15:07:46;1.20;;;1.10;;
52294;SDS011;38243;53.212;6.574;2023-05-10T15:10:12;0.85;;;0.82;;
52294;SDS011;38243;53.212;6.574;2023-05-10T15:12:39;1.00;;;1.00;;
52294;SDS011;38243;53.212;6.574;2023-05-10T15:15:05;1.00;;;0.90;;
52294;SDS011;38243;53.212;6.574;2023-05-10T15:17:31;1.30;;;0.90;;
52294;SDS011;38243;53.212;6.574;2023-05-10T15:19:57;0.82;;;0.80;;
52294;SDS011;38243;53.212;6.574;2023-05-10T15:22:23;1.10;;;1.00;;
52294;SDS011;38243;53.212;6.574;2023-05-10T15:24:49;0.93;;;0.85;;
52294;SDS011;38243;53.212;6.574;2023-05-10T15:27:14;1.20;;;0.80;;
52294;SDS011;38243;53.212;6.574;2023-05-10T15:29:40;1.05;;;1.00;;
52294;SDS011;38243;53.212;6.574;2023-05-10T15:32:06;1.98;;;1.00;;
52294;SDS011;38243;53.212;6.574;2023-05-10T15:34:32;1.10;;;0.90;;